Time;durP1;ratioP1;P1;durP2;ratioP2;P2;SDS_P1;SDS_P2;PMS_P1;PMS_P2;Temp;Humidity;BMP_temperature;BMP_pressure;BME280_temperature;BME280_humidity;BME280_pressure;Samples;Min_cycle;Max_cycle;Signal;HPM_P1;HPM_P2
2021/06/26 00:02:00;;;;;;;11.50;10.70;;;;;;;;;;5041788;28;20254;-58
2021/06/26 00:04:25;;;;;;;10.93;10.03;;;;;;;;;;5036054;28;20185;-58
2021/06/26 00:06:50;;;;;;;11.17;10.30;;;;;;;;;;5034192;28;20256;-60
2021/06/26 00:09:15;;;;;;;10.37;9.57;;;;;;;;;;5039059;28;20190;-59
2021/06/26 00:11:41;;;;;;;10.40;9.50;;;;;;;;;;5041447;28;20660;-59
2021/06/26 00:14:06;;;;;;;10.73;9.93;;;;;;;;;;5032081;28;20169;-59
2021/06/26 00:16:31;;;;;;;10.57;9.87;;;;;;;;;;5044610;28;20240;-59
2021/06/26 00:18:56;;;;;;;9.97;9.27;;;;;;;;;;5043146;28;20176;-59
2021/06/26 00:21:21;;;;;;;10.60;9.90;;;;;;;;;;5029563;28;20178;-59
2021/06/26 00:23:46;;;;;;;10.35;9.55;;;;;;;;;;5029791;28;20193;-60
2021/06/26 00:26:12;;;;;;;10.57;9.50;;;;;;;;;;5029471;28;20639;-60
2021/06/26 00:28:37;;;;;;;10.10;9.40;;;;;;;;;;5028126;28;20230;-59
2021/06/26 00:31:02;;;;;;;10.83;9.93;;;;;;;;;;5032619;28;20228;-59
2021/06/26 00:33:27;;;;;;;10.83;10.13;;;;;;;;;;5029240;28;20174;-59
2021/06/26 00:35:52;;;;;;;10.97;10.17;;;;;;;;;;5028849;28;20176;-60
2021/06/26 00:38:18;;;;;;;10.63;9.82;;;;;;;;;;5030767;28;20206;-59
2021/06/26 00:40:43;;;;;;;10.75;9.85;;;;;;;;;;5031799;28;20185;-60
2021/06/26 00:43:08;;;;;;;10.77;9.97;;;;;;;;;;5029579;28;20238;-60
2021/06/26 00:45:33;;;;;;;10.10;9.20;;;;;;;;;;5028807;28;20718;-59
2021/06/26 00:47:58;;;;;;;10.20;9.32;;;;;;;;;;5029347;28;20186;-59
2021/06/26 00:50:25;;;;;;;9.40;8.70;;;;;;;;;;5031429;28;20236;-59
2021/06/26 00:52:50;;;;;;;9.93;9.13;;;;;;;;;;5028535;28;20209;-59
2021/06/26 00:55:17;;;;;;;9.77;8.87;;;;;;;;;;5027662;28;20956;-59
2021/06/26 00:57:44;;;;;;;10.60;9.80;;;;;;;;;;5028896;28;20175;-58
2021/06/26 01:00:09;;;;;;;9.80;9.00;;;;;;;;;;5029021;28;20610;-59
2021/06/26 01:02:34;;;;;;;10.77;9.97;;;;;;;;;;5029985;28;21038;-60
2021/06/26 01:04:59;;;;;;;9.85;9.05;;;;;;;;;;5027063;28;20258;-58
2021/06/26 01:07:24;;;;;;;10.20;9.40;;;;;;;;;;5041646;28;20181;-58
2021/06/26 01:09:50;;;;;;;10.32;9.60;;;;;;;;;;5029133;28;20217;-59
2021/06/26 01:12:15;;;;;;;10.93;9.98;;;;;;;;;;5028480;28;20266;-58
2021/06/26 01:14:40;;;;;;;9.82;9.02;;;;;;;;;;5028647;28;20180;-58
2021/06/26 01:17:08;;;;;;;9.30;8.60;;;;;;;;;;5028655;28;20181;-58
2021/06/26 01:19:34;;;;;;;10.70;9.80;;;;;;;;;;5026843;28;20263;-58
2021/06/26 01:22:01;;;;;;;9.63;8.90;;;;;;;;;;5040166;28;20699;-58
2021/06/26 01:24:26;;;;;;;10.60;9.63;;;;;;;;;;5026884;28;20193;-58
2021/06/26 01:26:56;;;;;;;10.75;9.95;;;;;;;;;;5028260;28;20696;-59
2021/06/26 01:29:21;;;;;;;12.30;11.20;;;;;;;;;;5028024;28;20686;-59
2021/06/26 01:31:46;;;;;;;12.50;11.50;;;;;;;;;;5028047;28;21426;-59
2021/06/26 01:34:11;;;;;;;10.60;9.80;;;;;;;;;;5043437;28;20186;-59
2021/06/26 01:36:37;;;;;;;11.30;10.30;;;;;;;;;;5026432;28;20183;-59
2021/06/26 01:39:02;;;;;;;10.48;9.57;;;;;;;;;;5029941;28;20579;-59
2021/06/26 01:41:29;;;;;;;10.40;9.60;;;;;;;;;;5027718;28;20186;-59
2021/06/26 01:43:54;;;;;;;10.60;9.70;;;;;;;;;;5027761;28;20178;-59
2021/06/26 01:46:19;;;;;;;10.95;10.05;;;;;;;;;;5026645;28;21024;-59
2021/06/26 01:48:45;;;;;;;11.35;10.43;;;;;;;;;;5027814;28;20272;-60
2021/06/26 01:51:10;;;;;;;11.30;10.40;;;;;;;;;;5027521;28;20200;-59
2021/06/26 01:53:35;;;;;;;10.77;9.97;;;;;;;;;;5031649;28;20188;-59
2021/06/26 01:56:00;;;;;;;12.00;10.80;;;;;;;;;;5031489;28;20201;-60
2021/06/26 01:58:25;;;;;;;10.80;9.98;;;;;;;;;;5025974;28;20182;-59
2021/06/26 02:00:51;;;;;;;11.67;10.80;;;;;;;;;;5028278;28;20707;-59
2021/06/26 02:03:16;;;;;;;12.27;11.27;;;;;;;;;;5027850;28;20194;-59
2021/06/26 02:05:41;;;;;;;12.88;11.82;;;;;;;;;;5030082;28;20189;-59
2021/06/26 02:08:06;;;;;;;13.03;11.90;;;;;;;;;;5026097;28;20206;-59
2021/06/26 02:10:32;;;;;;;11.30;10.40;;;;;;;;;;5027627;28;20563;-59
2021/06/26 02:12:57;;;;;;;12.60;11.60;;;;;;;;;;5047168;28;20247;-58
2021/06/26 02:15:22;;;;;;;13.00;12.00;;;;;;;;;;5035060;28;21196;-59
2021/06/26 02:17:47;;;;;;;13.07;11.88;;;;;;;;;;5027052;28;20256;-58
2021/06/26 02:20:13;;;;;;;12.13;11.23;;;;;;;;;;5027493;28;20195;-58
2021/06/26 02:22:38;;;;;;;13.10;12.10;;;;;;;;;;5035377;28;20547;-58
2021/06/26 02:25:05;;;;;;;13.50;12.50;;;;;;;;;;5028177;28;20171;-58
2021/06/26 02:27:31;;;;;;;12.90;12.00;;;;;;;;;;5027781;28;20256;-58
2021/06/26 02:29:56;;;;;;;12.90;11.90;;;;;;;;;;5026942;28;20733;-59
2021/06/26 02:32:21;;;;;;;12.80;11.80;;;;;;;;;;5028299;28;20266;-59
2021/06/26 02:34:46;;;;;;;12.88;11.75;;;;;;;;;;5025823;28;20186;-58
2021/06/26 02:37:11;;;;;;;14.15;12.88;;;;;;;;;;5031833;28;20182;-58
2021/06/26 02:39:36;;;;;;;13.35;12.32;;;;;;;;;;5034962;28;20212;-59
2021/06/26 02:42:02;;;;;;;13.52;12.40;;;;;;;;;;5045449;28;20257;-58
2021/06/26 02:44:28;;;;;;;12.30;11.20;;;;;;;;;;5025352;28;20234;-59
2021/06/26 02:46:53;;;;;;;13.03;11.77;;;;;;;;;;5035732;28;20185;-59
2021/06/26 02:49:18;;;;;;;12.97;11.90;;;;;;;;;;5036530;28;20183;-59
2021/06/26 02:51:43;;;;;;;12.03;11.03;;;;;;;;;;5026885;28;20689;-59
2021/06/26 02:54:08;;;;;;;12.85;11.68;;;;;;;;;;5027128;28;20187;-59
2021/06/26 02:56:34;;;;;;;13.57;12.38;;;;;;;;;;5028760;28;20181;-59
2021/06/26 02:58:59;;;;;;;12.85;11.75;;;;;;;;;;5047010;28;20206;-59
2021/06/26 03:01:24;;;;;;;12.98;11.77;;;;;;;;;;5035093;28;20561;-59
2021/06/26 03:03:49;;;;;;;11.73;10.60;;;;;;;;;;5027436;28;20187;-60
2021/06/26 03:06:14;;;;;;;14.07;12.43;;;;;;;;;;5025115;28;20187;-59
2021/06/26 03:08:39;;;;;;;15.40;14.00;;;;;;;;;;5031112;28;20733;-59
2021/06/26 03:11:04;;;;;;;15.10;13.40;;;;;;;;;;5038987;28;20274;-59
2021/06/26 03:13:30;;;;;;;13.70;12.60;;;;;;;;;;5025232;28;20169;-58
2021/06/26 03:15:55;;;;;;;14.73;13.30;;;;;;;;;;5026813;28;20635;-58
2021/06/26 03:18:20;;;;;;;15.20;13.80;;;;;;;;;;5034147;28;20261;-58
2021/06/26 03:20:45;;;;;;;14.50;13.30;;;;;;;;;;5025055;28;20174;-59
2021/06/26 03:23:10;;;;;;;15.05;13.73;;;;;;;;;;5031724;28;20174;-59
2021/06/26 03:25:36;;;;;;;14.30;13.10;;;;;;;;;;5030416;28;20706;-60
2021/06/26 03:28:01;;;;;;;14.40;13.07;;;;;;;;;;5036900;28;20632;-58
2021/06/26 03:30:26;;;;;;;15.70;14.13;;;;;;;;;;5027012;28;20303;-59
2021/06/26 03:32:51;;;;;;;14.80;13.57;;;;;;;;;;5032421;28;20205;-59
2021/06/26 03:35:16;;;;;;;15.07;13.60;;;;;;;;;;5031916;28;20168;-59
2021/06/26 03:37:42;;;;;;;15.77;14.47;;;;;;;;;;5030577;28;20184;-59
2021/06/26 03:40:08;;;;;;;16.07;14.80;;;;;;;;;;5043592;28;20203;-59
2021/06/26 03:42:33;;;;;;;15.83;14.40;;;;;;;;;;5031938;28;20187;-59
2021/06/26 03:44:58;;;;;;;14.95;13.73;;;;;;;;;;5040812;28;20532;-58
2021/06/26 03:47:25;;;;;;;14.68;13.30;;;;;;;;;;5028817;28;20181;-58
2021/06/26 03:49:50;;;;;;;15.23;13.70;;;;;;;;;;5041332;28;20178;-58
2021/06/26 03:52:16;;;;;;;15.20;13.90;;;;;;;;;;5031192;28;21072;-58
2021/06/26 03:54:41;;;;;;;14.73;13.55;;;;;;;;;;5040023;28;20694;-59
2021/06/26 03:57:06;;;;;;;15.93;14.63;;;;;;;;;;5031329;28;20261;-58
2021/06/26 03:59:31;;;;;;;15.43;13.83;;;;;;;;;;5028261;28;20224;-59
2021/06/26 04:01:57;;;;;;;14.30;13.00;;;;;;;;;;5028231;28;20750;-59
2021/06/26 04:04:22;;;;;;;14.03;12.83;;;;;;;;;;5031491;28;20174;-59
2021/06/26 04:06:47;;;;;;;13.75;12.65;;;;;;;;;;5029789;28;20595;-59
2021/06/26 04:09:13;;;;;;;13.47;12.37;;;;;;;;;;5028086;28;20184;-59
2021/06/26 04:11:38;;;;;;;13.63;12.47;;;;;;;;;;5028097;28;20667;-59
2021/06/26 04:14:04;;;;;;;13.63;12.40;;;;;;;;;;5029947;28;20170;-59
2021/06/26 04:16:29;;;;;;;14.53;13.37;;;;;;;;;;5043860;28;20170;-59
2021/06/26 04:18:55;;;;;;;13.57;12.47;;;;;;;;;;5032593;28;20195;-58
2021/06/26 04:21:20;;;;;;;14.73;13.50;;;;;;;;;;5030516;28;20186;-59
2021/06/26 04:23:45;;;;;;;13.15;11.82;;;;;;;;;;5029319;28;20185;-59
2021/06/26 04:26:10;;;;;;;13.45;12.35;;;;;;;;;;5038180;28;20179;-58
2021/06/26 04:28:35;;;;;;;13.03;11.83;;;;;;;;;;5031722;28;20650;-59
2021/06/26 04:31:00;;;;;;;14.43;13.23;;;;;;;;;;5029067;28;20228;-59
2021/06/26 04:33:26;;;;;;;16.75;15.30;;;;;;;;;;5031782;28;20256;-59
2021/06/26 04:35:51;;;;;;;14.30;13.20;;;;;;;;;;5029345;28;20192;-59
2021/06/26 04:38:22;;;;;;;14.97;13.83;;;;;;;;;;5029356;28;20588;-58
2021/06/26 04:40:47;;;;;;;14.27;13.07;;;;;;;;;;5028640;28;20184;-58
2021/06/26 04:43:12;;;;;;;15.60;14.20;;;;;;;;;;5029111;28;20964;-59
2021/06/26 04:45:38;;;;;;;16.05;14.55;;;;;;;;;;5029797;28;20212;-58
2021/06/26 04:48:03;;;;;;;15.90;14.30;;;;;;;;;;5031297;28;20175;-58
2021/06/26 04:50:28;;;;;;;16.57;15.07;;;;;;;;;;5036690;28;20172;-59
2021/06/26 04:52:53;;;;;;;17.40;15.80;;;;;;;;;;5049206;28;20670;-58
2021/06/26 04:55:18;;;;;;;15.07;13.70;;;;;;;;;;5039155;28;20176;-58
2021/06/26 04:57:44;;;;;;;16.73;13.95;;;;;;;;;;5043866;28;20568;-58
2021/06/26 05:00:09;;;;;;;15.80;14.23;;;;;;;;;;5037335;28;20176;-58
2021/06/26 05:02:35;;;;;;;15.10;13.70;;;;;;;;;;5032340;28;20178;-59
2021/06/26 05:05:00;;;;;;;13.93;12.83;;;;;;;;;;5042640;28;20840;-59
2021/06/26 05:07:25;;;;;;;14.67;13.47;;;;;;;;;;5043962;28;20192;-59
2021/06/26 05:09:50;;;;;;;14.95;13.55;;;;;;;;;;5033542;28;20230;-58
2021/06/26 05:12:15;;;;;;;15.23;14.02;;;;;;;;;;5033766;28;20211;-57
2021/06/26 05:14:40;;;;;;;14.40;13.07;;;;;;;;;;5041688;28;20477;-58
2021/06/26 05:17:06;;;;;;;14.50;13.15;;;;;;;;;;5031446;28;20231;-58
2021/06/26 05:19:31;;;;;;;13.53;12.53;;;;;;;;;;5046891;28;20175;-58
2021/06/26 05:21:56;;;;;;;13.40;12.20;;;;;;;;;;5043669;28;20176;-59
2021/06/26 05:24:21;;;;;;;11.75;10.95;;;;;;;;;;5033735;28;20575;-59
2021/06/26 05:26:46;;;;;;;11.40;10.40;;;;;;;;;;5036384;28;20171;-60
2021/06/26 05:29:11;;;;;;;11.20;10.30;;;;;;;;;;5034395;28;20178;-59
2021/06/26 05:31:37;;;;;;;9.30;8.60;;;;;;;;;;5034288;28;20228;-58
2021/06/26 05:34:02;;;;;;;9.60;8.83;;;;;;;;;;5029373;28;20184;-58
2021/06/26 05:36:27;;;;;;;11.13;10.05;;;;;;;;;;5043852;28;20713;-58
2021/06/26 05:38:52;;;;;;;9.60;8.90;;;;;;;;;;5046839;28;20173;-58
2021/06/26 05:41:18;;;;;;;9.55;8.75;;;;;;;;;;5030299;28;20179;-58
2021/06/26 05:43:43;;;;;;;10.30;9.53;;;;;;;;;;5037235;28;20273;-60
2021/06/26 05:46:08;;;;;;;9.43;8.70;;;;;;;;;;5039307;28;20187;-59
2021/06/26 05:48:33;;;;;;;10.60;9.73;;;;;;;;;;5034718;28;20176;-59
2021/06/26 05:50:58;;;;;;;10.43;9.63;;;;;;;;;;5029977;28;20210;-58
2021/06/26 05:53:24;;;;;;;10.57;9.60;;;;;;;;;;5031843;28;20259;-57
2021/06/26 05:56:01;;;;;;;9.40;8.80;;;;;;;;;;5029114;28;20180;-58
2021/06/26 05:58:30;;;;;;;9.13;8.43;;;;;;;;;;5042288;28;20193;-58
2021/06/26 06:00:56;;;;;;;9.07;8.33;;;;;;;;;;5040555;28;20601;-58
2021/06/26 06:03:21;;;;;;;10.07;9.27;;;;;;;;;;5031663;28;20995;-58
2021/06/26 06:05:47;;;;;;;9.20;8.30;;;;;;;;;;5033010;28;20241;-58
2021/06/26 06:08:13;;;;;;;10.23;9.23;;;;;;;;;;5038197;28;20181;-58
2021/06/26 06:10:38;;;;;;;9.60;9.00;;;;;;;;;;5034607;28;21053;-58
2021/06/26 06:13:03;;;;;;;9.80;9.10;;;;;;;;;;5039169;28;20203;-58
2021/06/26 06:15:28;;;;;;;9.85;9.05;;;;;;;;;;5036440;28;20189;-57
2021/06/26 06:17:53;;;;;;;10.38;9.68;;;;;;;;;;5037163;28;20178;-59
2021/06/26 06:20:18;;;;;;;9.75;8.95;;;;;;;;;;5031086;28;20632;-57
2021/06/26 06:22:43;;;;;;;9.38;8.57;;;;;;;;;;5039847;28;20180;-58
2021/06/26 06:25:11;;;;;;;11.10;10.10;;;;;;;;;;5027190;28;20271;-59
2021/06/26 06:27:36;;;;;;;9.07;8.40;;;;;;;;;;5039721;28;20181;-60
2021/06/26 06:30:02;;;;;;;12.83;11.83;;;;;;;;;;5031523;28;21184;-59
2021/06/26 06:32:28;;;;;;;13.90;12.80;;;;;;;;;;5027873;28;20195;-59
2021/06/26 06:34:53;;;;;;;13.05;11.85;;;;;;;;;;5027876;28;21305;-59
2021/06/26 06:37:18;;;;;;;12.07;11.03;;;;;;;;;;5041176;28;20186;-59
2021/06/26 06:39:43;;;;;;;11.90;10.70;;;;;;;;;;5043253;28;20646;-59
2021/06/26 06:42:09;;;;;;;11.87;10.90;;;;;;;;;;5033490;28;20174;-59
2021/06/26 06:44:34;;;;;;;10.70;9.73;;;;;;;;;;5027898;28;20181;-59
2021/06/26 06:46:59;;;;;;;9.00;8.20;;;;;;;;;;5029653;28;20187;-59
2021/06/26 06:49:24;;;;;;;9.67;8.87;;;;;;;;;;5033043;28;20180;-60
2021/06/26 06:51:49;;;;;;;7.97;7.37;;;;;;;;;;5037976;28;20205;-60
2021/06/26 06:54:14;;;;;;;9.38;6.50;;;;;;;;;;5036752;28;20401;-61
2021/06/26 06:56:40;;;;;;;7.78;7.30;;;;;;;;;;5028574;28;20234;-60
2021/06/26 06:59:05;;;;;;;8.70;8.00;;;;;;;;;;5031088;28;20689;-60
2021/06/26 07:01:30;;;;;;;9.02;8.23;;;;;;;;;;5030472;28;20200;-59
2021/06/26 07:03:55;;;;;;;10.00;9.25;;;;;;;;;;5028551;28;20185;-59
2021/06/26 07:06:21;;;;;;;7.97;7.07;;;;;;;;;;5043526;28;20180;-59
2021/06/26 07:08:46;;;;;;;7.88;7.38;;;;;;;;;;5047663;28;20172;-60
2021/06/26 07:11:11;;;;;;;7.47;6.87;;;;;;;;;;5036714;28;20693;-60
2021/06/26 07:13:36;;;;;;;7.93;7.28;;;;;;;;;;5040387;28;20201;-60
2021/06/26 07:16:01;;;;;;;8.90;7.97;;;;;;;;;;5040860;28;20658;-59
2021/06/26 07:21:21;;;;;;;8.93;8.33;;;;;;;;;;5038536;28;20254;-58
2021/06/26 07:23:46;;;;;;;8.83;8.23;;;;;;;;;;5042249;28;20978;-59
2021/06/26 07:26:12;;;;;;;9.20;8.50;;;;;;;;;;5046755;28;20169;-59
2021/06/26 07:28:37;;;;;;;14.10;12.93;;;;;;;;;;5031099;28;20176;-58
2021/06/26 07:31:02;;;;;;;11.63;10.83;;;;;;;;;;5052098;28;20227;-58
2021/06/26 07:33:27;;;;;;;13.00;12.00;;;;;;;;;;5050683;28;20262;-58
2021/06/26 07:35:52;;;;;;;11.75;10.85;;;;;;;;;;5038738;28;20176;-58
2021/06/26 07:38:17;;;;;;;13.43;12.45;;;;;;;;;;5047722;28;20179;-58
2021/06/26 07:40:42;;;;;;;14.80;13.30;;;;;;;;;;5041770;28;20173;-59
2021/06/26 07:43:08;;;;;;;14.23;12.93;;;;;;;;;;5045865;28;20578;-59
2021/06/26 07:45:33;;;;;;;12.32;11.43;;;;;;;;;;5041110;28;20718;-59
2021/06/26 07:47:58;;;;;;;12.30;11.30;;;;;;;;;;5037003;28;20192;-59
2021/06/26 07:50:23;;;;;;;11.32;10.52;;;;;;;;;;5039040;28;20190;-61
2021/06/26 07:52:48;;;;;;;12.20;11.20;;;;;;;;;;5049886;28;20202;-60
2021/06/26 07:55:13;;;;;;;12.80;11.83;;;;;;;;;;5045496;28;20172;-60
2021/06/26 07:57:39;;;;;;;11.03;10.23;;;;;;;;;;5030660;28;20198;-60
2021/06/26 08:00:07;;;;;;;13.77;12.63;;;;;;;;;;5031046;28;20198;-60
2021/06/26 08:02:32;;;;;;;13.10;12.00;;;;;;;;;;5029907;28;20608;-60
2021/06/26 08:04:58;;;;;;;13.57;12.53;;;;;;;;;;5029295;28;20710;-60
2021/06/26 08:07:23;;;;;;;10.93;10.13;;;;;;;;;;5044452;28;20178;-61
2021/06/26 08:09:48;;;;;;;11.53;10.73;;;;;;;;;;5048293;28;20290;-60
2021/06/26 08:12:15;;;;;;;12.30;11.30;;;;;;;;;;5045311;28;20277;-61
2021/06/26 08:14:41;;;;;;;11.60;10.40;;;;;;;;;;5049046;28;20181;-61
2021/06/26 08:17:06;;;;;;;12.50;11.40;;;;;;;;;;5029709;28;20563;-60
2021/06/26 08:19:31;;;;;;;10.75;10.00;;;;;;;;;;5029566;28;20175;-60
2021/06/26 08:21:56;;;;;;;11.55;10.70;;;;;;;;;;5028192;28;20183;-60
2021/06/26 08:24:22;;;;;;;11.93;11.07;;;;;;;;;;5028877;28;20176;-60
2021/06/26 08:26:48;;;;;;;10.67;9.97;;;;;;;;;;5031319;28;20268;-60
2021/06/26 08:29:13;;;;;;;12.10;11.10;;;;;;;;;;5036522;28;20697;-60
2021/06/26 08:31:38;;;;;;;12.83;11.63;;;;;;;;;;5047191;28;20211;-60
2021/06/26 08:34:03;;;;;;;13.23;12.13;;;;;;;;;;5041973;28;20172;-59
2021/06/26 08:36:28;;;;;;;11.95;11.10;;;;;;;;;;5029017;28;20207;-59
2021/06/26 08:38:53;;;;;;;12.30;11.50;;;;;;;;;;5028729;28;20171;-59
2021/06/26 08:41:19;;;;;;;10.75;9.95;;;;;;;;;;5039404;28;20173;-59
2021/06/26 08:43:44;;;;;;;10.90;10.00;;;;;;;;;;5043216;28;20177;-59
2021/06/26 08:46:10;;;;;;;11.93;10.93;;;;;;;;;;5029152;28;20609;-58
2021/06/26 08:48:35;;;;;;;9.80;9.10;;;;;;;;;;5029323;28;20178;-59
2021/06/26 08:51:00;;;;;;;12.03;10.90;;;;;;;;;;5029235;28;20180;-58
2021/06/26 08:53:25;;;;;;;11.33;10.40;;;;;;;;;;5028512;28;20746;-59
2021/06/26 08:55:53;;;;;;;10.50;9.67;;;;;;;;;;5028792;28;20548;-58
2021/06/26 08:58:18;;;;;;;10.33;9.53;;;;;;;;;;5032489;28;20183;-59
2021/06/26 09:00:43;;;;;;;9.73;9.13;;;;;;;;;;5028317;28;20602;-59
2021/06/26 09:03:10;;;;;;;9.85;9.15;;;;;;;;;;5028463;28;20188;-59
2021/06/26 09:05:35;;;;;;;10.30;9.40;;;;;;;;;;5028796;28;20665;-59
2021/06/26 09:08:10;;;;;;;9.97;9.30;;;;;;;;;;5027953;28;20641;-61
2021/06/26 09:10:35;;;;;;;10.70;9.90;;;;;;;;;;5028429;28;20691;-60
2021/06/26 09:13:09;;;;;;;11.90;10.80;;;;;;;;;;5029381;28;20677;-60
2021/06/26 09:15:34;;;;;;;12.20;11.10;;;;;;;;;;5028506;28;20247;-59
2021/06/26 09:18:09;;;;;;;10.63;9.82;;;;;;;;;;5028772;28;20614;-60
2021/06/26 09:20:36;;;;;;;10.40;9.60;;;;;;;;;;5031623;28;20589;-59
2021/06/26 09:23:03;;;;;;;9.40;8.80;;;;;;;;;;5036338;28;20673;-60
2021/06/26 09:25:30;;;;;;;11.07;10.17;;;;;;;;;;5028079;28;20585;-59
2021/06/26 09:27:59;;;;;;;9.40;8.70;;;;;;;;;;5041998;28;20993;-59
2021/06/26 09:30:33;;;;;;;10.17;9.37;;;;;;;;;;5027690;28;20627;-59
2021/06/26 09:33:01;;;;;;;9.77;9.07;;;;;;;;;;5027190;28;21026;-59
2021/06/26 09:35:26;;;;;;;8.33;7.70;;;;;;;;;;5027527;28;20872;-59
2021/06/26 09:37:51;;;;;;;9.00;8.40;;;;;;;;;;5028303;28;20597;-60
2021/06/26 09:40:25;;;;;;;9.97;9.20;;;;;;;;;;5028223;28;20182;-60
2021/06/26 09:42:53;;;;;;;9.23;8.53;;;;;;;;;;5028608;28;20266;-59
2021/06/26 09:45:20;;;;;;;9.20;8.50;;;;;;;;;;5045882;28;20610;-59
2021/06/26 09:47:46;;;;;;;9.97;9.30;;;;;;;;;;5031070;28;20606;-59
2021/06/26 09:50:18;;;;;;;10.23;9.53;;;;;;;;;;5027565;28;20597;-59
2021/06/26 09:52:47;;;;;;;10.50;9.77;;;;;;;;;;5027360;28;21146;-60
2021/06/26 09:55:13;;;;;;;11.10;10.30;;;;;;;;;;5030450;28;20600;-59
2021/06/26 09:57:38;;;;;;;11.00;10.10;;;;;;;;;;5039373;28;20977;-60
2021/06/26 10:00:03;;;;;;;11.00;10.30;;;;;;;;;;5026865;28;20233;-60
2021/06/26 10:02:29;;;;;;;12.03;11.13;;;;;;;;;;5028869;28;20187;-59
2021/06/26 10:04:54;;;;;;;10.30;9.50;;;;;;;;;;5033016;28;20179;-59
2021/06/26 10:07:19;;;;;;;11.77;11.00;;;;;;;;;;5047605;28;20188;-58
2021/06/26 10:09:45;;;;;;;12.53;11.60;;;;;;;;;;5034926;28;20274;-59
2021/06/26 10:12:10;;;;;;;11.00;10.20;;;;;;;;;;5047979;28;20283;-59
2021/06/26 10:14:35;;;;;;;12.20;11.07;;;;;;;;;;5035978;28;20180;-60
2021/06/26 10:17:01;;;;;;;12.37;11.47;;;;;;;;;;5034050;28;20187;-59
2021/06/26 10:19:26;;;;;;;12.33;11.23;;;;;;;;;;5030030;28;20250;-59
2021/06/26 10:21:52;;;;;;;10.80;10.10;;;;;;;;;;5027379;28;20180;-59
2021/06/26 10:24:18;;;;;;;12.23;11.33;;;;;;;;;;5027264;28;20719;-59
2021/06/26 10:26:44;;;;;;;11.87;10.97;;;;;;;;;;5032862;28;20236;-59
2021/06/26 10:29:09;;;;;;;11.63;10.77;;;;;;;;;;5037830;28;20586;-59
2021/06/26 10:31:39;;;;;;;10.07;9.37;;;;;;;;;;5026475;28;20719;-60
2021/06/26 10:34:08;;;;;;;10.03;9.30;;;;;;;;;;5027498;28;20200;-59
2021/06/26 10:36:34;;;;;;;10.90;10.10;;;;;;;;;;5040603;28;20602;-59
2021/06/26 10:38:59;;;;;;;10.17;9.47;;;;;;;;;;5039234;28;21190;-59
2021/06/26 10:41:24;;;;;;;11.83;10.90;;;;;;;;;;5027963;28;20584;-59
2021/06/26 10:44:00;;;;;;;10.60;9.90;;;;;;;;;;5026673;28;20660;-60
2021/06/26 10:46:25;;;;;;;10.10;9.30;;;;;;;;;;5036235;28;20585;-59
2021/06/26 10:49:08;;;;;;;12.10;10.80;;;;;;;;;;5046108;28;20695;-59
2021/06/26 10:51:34;;;;;;;12.50;11.50;;;;;;;;;;5028014;28;20206;-60
2021/06/26 10:54:13;;;;;;;12.93;12.03;;;;;;;;;;5039060;28;20619;-59
2021/06/26 10:56:38;;;;;;;12.50;11.60;;;;;;;;;;5033336;28;20618;-60
2021/06/26 10:59:07;;;;;;;12.13;11.20;;;;;;;;;;5045813;28;20686;-62
2021/06/26 11:01:33;;;;;;;11.73;10.83;;;;;;;;;;5032700;28;20184;-59
2021/06/26 11:04:06;;;;;;;10.97;10.10;;;;;;;;;;5026568;28;20972;-60
2021/06/26 11:06:32;;;;;;;11.93;11.13;;;;;;;;;;5026462;28;20657;-60
2021/06/26 11:08:58;;;;;;;11.30;10.50;;;;;;;;;;5035716;28;20682;-59
2021/06/26 11:11:34;;;;;;;11.00;10.20;;;;;;;;;;5036040;28;20211;-59
2021/06/26 11:14:03;;;;;;;11.97;11.07;;;;;;;;;;5033024;28;20614;-60
2021/06/26 11:16:28;;;;;;;11.57;10.77;;;;;;;;;;5036299;28;20704;-59
2021/06/26 11:18:54;;;;;;;11.77;10.87;;;;;;;;;;5035438;28;20690;-59
2021/06/26 11:21:19;;;;;;;10.70;9.90;;;;;;;;;;5034737;28;20182;-60
2021/06/26 11:23:50;;;;;;;10.27;9.57;;;;;;;;;;5042378;28;20179;-59
2021/06/26 11:26:16;;;;;;;12.17;11.17;;;;;;;;;;5036146;28;20255;-59
2021/06/26 11:28:44;;;;;;;12.43;11.50;;;;;;;;;;5030482;28;20969;-61
2021/06/26 11:31:09;;;;;;;14.40;13.03;;;;;;;;;;5030271;28;20218;-60
2021/06/26 11:33:35;;;;;;;16.77;15.50;;;;;;;;;;5037925;28;20612;-65
2021/06/26 11:36:01;;;;;;;20.10;18.30;;;;;;;;;;5040146;28;20188;-60
2021/06/26 11:38:26;;;;;;;23.93;21.37;;;;;;;;;;5045346;28;20591;-57
2021/06/26 11:41:05;;;;;;;25.37;22.80;;;;;;;;;;5054947;28;20183;-59
2021/06/26 11:43:30;;;;;;;20.57;18.57;;;;;;;;;;5034860;28;20173;-61
2021/06/26 11:45:55;;;;;;;25.87;23.57;;;;;;;;;;5028429;28;20601;-62
2021/06/26 11:48:21;;;;;;;25.47;23.40;;;;;;;;;;5027133;28;20170;-63
2021/06/26 11:50:56;;;;;;;24.60;22.50;;;;;;;;;;5030584;28;20172;-64
2021/06/26 11:53:23;;;;;;;23.03;21.20;;;;;;;;;;5029605;28;20173;-66
2021/06/26 11:55:55;;;;;;;22.90;20.80;;;;;;;;;;5042299;28;20589;-65
2021/06/26 11:58:21;;;;;;;22.90;21.07;;;;;;;;;;5031311;28;20692;-64
2021/06/26 12:01:06;;;;;;;17.20;15.90;;;;;;;;;;5047275;28;20684;-63
2021/06/26 12:03:31;;;;;;;15.57;14.37;;;;;;;;;;5030370;28;20582;-62
2021/06/26 12:06:01;;;;;;;15.00;13.90;;;;;;;;;;5040818;28;20656;-61
2021/06/26 12:08:26;;;;;;;16.00;14.90;;;;;;;;;;5029752;28;20264;-62
2021/06/26 12:10:51;;;;;;;16.83;15.50;;;;;;;;;;5032720;28;20710;-61
2021/06/26 12:13:16;;;;;;;14.50;13.40;;;;;;;;;;5045800;28;20200;-61
2021/06/26 12:15:43;;;;;;;17.60;16.17;;;;;;;;;;5044144;28;20176;-61
2021/06/26 12:18:08;;;;;;;17.70;16.30;;;;;;;;;;5031112;28;20204;-60
2021/06/26 12:20:35;;;;;;;17.57;16.27;;;;;;;;;;5042646;28;21165;-62
2021/06/26 12:23:07;;;;;;;16.93;15.60;;;;;;;;;;5052444;28;21028;-62
2021/06/26 12:25:37;;;;;;;14.87;13.87;;;;;;;;;;5034358;28;20612;-63
2021/06/26 12:28:03;;;;;;;15.23;14.13;;;;;;;;;;5040941;28;20985;-62
2021/06/26 12:30:28;;;;;;;16.00;14.80;;;;;;;;;;5040111;28;20636;-62
2021/06/26 12:33:01;;;;;;;15.83;14.33;;;;;;;;;;5045475;28;20430;-62
2021/06/26 12:35:28;;;;;;;17.53;16.20;;;;;;;;;;5030395;28;20630;-62
2021/06/26 12:37:53;;;;;;;13.97;12.97;;;;;;;;;;5030227;28;20602;-63
2021/06/26 12:40:26;;;;;;;14.60;13.53;;;;;;;;;;5048304;28;20608;-63
2021/06/26 12:42:52;;;;;;;13.27;12.37;;;;;;;;;;5040276;28;20546;-62
2021/06/26 12:45:21;;;;;;;13.70;12.80;;;;;;;;;;5038233;28;20608;-62
2021/06/26 12:47:56;;;;;;;14.83;13.80;;;;;;;;;;5033498;28;20645;-62
2021/06/26 12:50:21;;;;;;;16.23;14.93;;;;;;;;;;5038714;28;20615;-63
2021/06/26 12:52:49;;;;;;;14.33;13.20;;;;;;;;;;5030403;28;20659;-63
2021/06/26 12:55:18;;;;;;;14.17;13.17;;;;;;;;;;5044910;28;20261;-63
2021/06/26 12:57:43;;;;;;;14.10;13.00;;;;;;;;;;5042160;28;21216;-63
2021/06/26 13:00:15;;;;;;;14.40;13.40;;;;;;;;;;5036308;28;21590;-63
2021/06/26 13:02:40;;;;;;;13.90;12.90;;;;;;;;;;5042352;28;20187;-63
2021/06/26 13:05:15;;;;;;;13.50;12.60;;;;;;;;;;5043543;28;20595;-61
2021/06/26 13:07:40;;;;;;;14.20;12.90;;;;;;;;;;5046221;28;20182;-62
2021/06/26 13:10:06;;;;;;;13.37;12.23;;;;;;;;;;5035441;28;20623;-61
2021/06/26 13:12:31;;;;;;;13.93;12.93;;;;;;;;;;5027609;28;20607;-63
2021/06/26 13:14:56;;;;;;;12.18;11.10;;;;;;;;;;5028194;28;20176;-62
2021/06/26 13:17:22;;;;;;;12.33;11.53;;;;;;;;;;5037732;28;20172;-62
2021/06/26 13:19:48;;;;;;;13.20;12.00;;;;;;;;;;5039065;28;20252;-62
2021/06/26 13:22:14;;;;;;;12.77;11.93;;;;;;;;;;5045326;28;20171;-62
2021/06/26 13:24:39;;;;;;;12.43;11.53;;;;;;;;;;5041888;28;20605;-62
2021/06/26 13:27:05;;;;;;;12.70;11.80;;;;;;;;;;5041159;28;21165;-61
2021/06/26 13:29:30;;;;;;;11.80;11.00;;;;;;;;;;5044788;28;20719;-61
2021/06/26 13:31:55;;;;;;;12.40;11.50;;;;;;;;;;5043411;28;20196;-61
2021/06/26 13:34:21;;;;;;;12.70;11.80;;;;;;;;;;5025712;28;20224;-61
2021/06/26 13:36:46;;;;;;;12.50;11.60;;;;;;;;;;5029730;28;20686;-61
2021/06/26 13:39:11;;;;;;;13.30;12.23;;;;;;;;;;5037914;28;20678;-62
2021/06/26 13:41:36;;;;;;;13.13;12.13;;;;;;;;;;5038460;28;20179;-61
2021/06/26 13:44:01;;;;;;;13.00;12.03;;;;;;;;;;5043444;28;20204;-62
2021/06/26 13:46:27;;;;;;;12.63;11.73;;;;;;;;;;5028384;28;20407;-62
2021/06/26 13:48:52;;;;;;;14.00;12.90;;;;;;;;;;5038551;28;20184;-62
2021/06/26 13:51:17;;;;;;;13.90;12.90;;;;;;;;;;5041573;28;20186;-61
2021/06/26 13:53:43;;;;;;;13.40;12.40;;;;;;;;;;5046897;28;20177;-63
2021/06/26 13:56:08;;;;;;;12.40;11.50;;;;;;;;;;5036053;28;20176;-62
2021/06/26 13:58:33;;;;;;;12.05;11.25;;;;;;;;;;5028001;28;20176;-62
2021/06/26 14:00:58;;;;;;;11.50;10.70;;;;;;;;;;5027567;28;20211;-63
2021/06/26 14:03:23;;;;;;;11.90;11.10;;;;;;;;;;5030899;28;20558;-64
2021/06/26 14:05:49;;;;;;;11.97;11.10;;;;;;;;;;5042863;28;20175;-61
2021/06/26 14:08:14;;;;;;;11.27;10.47;;;;;;;;;;5047267;28;20641;-63
2021/06/26 14:10:39;;;;;;;12.20;11.40;;;;;;;;;;5041926;28;20208;-63
2021/06/26 14:13:06;;;;;;;12.47;11.57;;;;;;;;;;5026878;28;20300;-62
2021/06/26 14:15:31;;;;;;;12.10;11.20;;;;;;;;;;5025998;28;20187;-62
2021/06/26 14:17:56;;;;;;;10.10;9.30;;;;;;;;;;5026261;28;20601;-61
2021/06/26 14:20:22;;;;;;;10.23;9.52;;;;;;;;;;5039198;28;20641;-62